createdAt,value
2023-05-21T00:01:23.921Z,76863.56
2023-05-21T00:03:50.682Z,76863.56
2023-05-21T00:06:17.264Z,76867.63
2023-05-21T00:08:43.733Z,76871.72
2023-05-21T00:11:10.406Z,76867.63
2023-05-21T00:13:36.866Z,76871.72
2023-05-21T00:16:03.355Z,76871.72
2023-05-21T00:18:32.162Z,76873.75
2023-05-21T00:20:59.257Z,76873.75
2023-05-21T00:23:26.358Z,76871.72
2023-05-21T00:25:53.299Z,76867.63
2023-05-21T00:28:19.737Z,76871.72
2023-05-21T00:30:47.215Z,76867.63
2023-05-21T00:33:13.831Z,76869.66
2023-05-21T00:35:40.366Z,76867.63
2023-05-21T00:38:08.391Z,76873.75
2023-05-21T00:40:36.118Z,76877.81
2023-05-21T00:43:02.649Z,76877.81
2023-05-21T00:45:29.500Z,76869.66
2023-05-21T00:47:56.334Z,76871.72
2023-05-21T00:50:23.471Z,76859.47
2023-05-21T00:52:50.153Z,76867.63
2023-05-21T00:55:16.845Z,76873.75
2023-05-21T00:57:45.936Z,76869.66
2023-05-21T01:00:14.611Z,76875.78
2023-05-21T01:02:42.142Z,76873.75
2023-05-21T01:05:09.711Z,76871.72
2023-05-21T01:07:39.108Z,76873.75
2023-05-21T01:10:08.300Z,76865.59
2023-05-21T01:12:35.533Z,76867.63
2023-05-21T01:15:03.972Z,76871.72
2023-05-21T01:17:31.651Z,76867.63
2023-05-21T01:19:59.301Z,76865.59
2023-05-21T01:22:30.747Z,76865.59
2023-05-21T01:24:57.198Z,76869.66
2023-05-21T01:27:23.689Z,76867.63
2023-05-21T01:29:50.330Z,76869.66
2023-05-21T01:32:41.459Z,76873.75
2023-05-21T01:35:21.696Z,76869.66
2023-05-21T01:37:55.670Z,76875.78
2023-05-21T01:40:27.852Z,76875.78
2023-05-21T01:42:54.380Z,76871.72
2023-05-21T01:45:23.810Z,76873.75
2023-05-21T01:47:53.954Z,76875.78
2023-05-21T01:50:24.519Z,76873.75
2023-05-21T01:52:58.462Z,76883.94
2023-05-21T01:55:25.304Z,76881.91
2023-05-21T01:57:53.392Z,76879.88
2023-05-21T02:00:25.389Z,76881.91
2023-05-21T02:02:52.033Z,76881.91
2023-05-21T02:05:18.600Z,76871.72
2023-05-21T02:07:46.145Z,76873.75
2023-05-21T02:10:12.730Z,76871.72
2023-05-21T02:12:39.212Z,76873.75
2023-05-21T02:15:06.486Z,76879.88
2023-05-21T02:17:34.141Z,76867.63
2023-05-21T02:20:10.952Z,76875.78
2023-05-21T02:22:47.950Z,76879.88
2023-05-21T02:25:16.293Z,76875.78
2023-05-21T02:27:43.594Z,76875.78
2023-05-21T02:30:12.695Z,76877.81
2023-05-21T02:32:42.487Z,76877.81
2023-05-21T02:35:11.235Z,76881.91
2023-05-21T02:37:40.202Z,76885.97
2023-05-21T02:40:07.820Z,76885.97
2023-05-21T02:42:34.517Z,76879.88
2023-05-21T02:45:00.953Z,76892.09
2023-05-21T02:47:27.432Z,76894.13
2023-05-21T02:49:54.302Z,76892.09
2023-05-21T02:52:22.509Z,76890.06
2023-05-21T02:54:49.148Z,76898.22
2023-05-21T02:57:15.744Z,76900.25
2023-05-21T02:59:42.157Z,76900.25
2023-05-21T03:02:08.621Z,76896.19
2023-05-21T03:04:38.817Z,76898.22
2023-05-21T03:07:06.018Z,76898.22
2023-05-21T03:09:32.556Z,76900.25
2023-05-21T03:11:59.095Z,76906.38
2023-05-21T03:14:25.563Z,76906.38
2023-05-21T03:16:52.017Z,76906.38
2023-05-21T03:19:18.510Z,76910.47
2023-05-21T03:21:45.112Z,76910.47
2023-05-21T03:24:13.653Z,76912.50
2023-05-21T03:26:40.229Z,76918.63
2023-05-21T03:29:07.132Z,76914.53
2023-05-21T03:31:35.561Z,76916.56
2023-05-21T03:34:10.396Z,76920.66
2023-05-21T03:36:36.830Z,76918.63
2023-05-21T03:39:04.363Z,76918.63
2023-05-21T03:41:33.262Z,76922.69
2023-05-21T03:44:06.472Z,76918.63
2023-05-21T03:46:45.572Z,76924.72
2023-05-21T03:49:20.487Z,76922.69
2023-05-21T03:51:49.156Z,76922.69
2023-05-21T03:54:17.631Z,76928.81
2023-05-21T03:56:44.513Z,76924.72
2023-05-21T03:59:11.509Z,76928.81
2023-05-21T04:01:38.987Z,76928.81
2023-05-21T04:04:06.841Z,76924.72
2023-05-21T04:06:33.357Z,76928.81
2023-05-21T04:08:59.785Z,76928.81
2023-05-21T04:11:26.232Z,76936.97
2023-05-21T04:13:52.784Z,76939.00
2023-05-21T04:16:19.586Z,76930.84
2023-05-21T04:18:46.984Z,76936.97
2023-05-21T04:21:15.229Z,76936.97
2023-05-21T04:23:41.710Z,76939.00
2023-05-21T04:26:16.209Z,76934.94
2023-05-21T04:28:42.762Z,76936.97
2023-05-21T04:31:09.549Z,76941.03
2023-05-21T04:33:36.064Z,76936.97
2023-05-21T04:36:03.821Z,76936.97
2023-05-21T04:38:30.685Z,76934.94
2023-05-21T04:40:58.665Z,76928.81
2023-05-21T04:43:28.122Z,76928.81
2023-05-21T04:45:59.929Z,76930.84
2023-05-21T04:48:29.369Z,76928.81
2023-05-21T04:50:56.663Z,76941.03
2023-05-21T04:53:25.827Z,76936.97
2023-05-21T04:55:52.341Z,76928.81
2023-05-21T04:58:19.543Z,76934.94
2023-05-21T05:00:47.476Z,76928.81
2023-05-21T05:03:15.191Z,76924.72
2023-05-21T05:05:43.190Z,76922.69
2023-05-21T05:08:09.809Z,76912.50
2023-05-21T05:10:36.668Z,76912.50
2023-05-21T05:13:03.591Z,76912.50
2023-05-21T05:15:30.132Z,76906.38
2023-05-21T05:17:57.038Z,76920.66
2023-05-21T05:20:23.581Z,76912.50
2023-05-21T05:22:50.813Z,76908.41
2023-05-21T05:25:17.349Z,76906.38
2023-05-21T05:27:44.727Z,76898.22
2023-05-21T05:30:11.703Z,76896.19
2023-05-21T05:32:38.314Z,76898.22
2023-05-21T05:35:05.941Z,76894.13
2023-05-21T05:37:33.575Z,76892.09
2023-05-21T05:40:00.139Z,76881.91
2023-05-21T05:42:27.325Z,76877.81
2023-05-21T05:44:54.083Z,76877.81
2023-05-21T05:47:21.731Z,76871.72
2023-05-21T05:49:48.266Z,76867.63
2023-05-21T05:52:15.094Z,76863.56
2023-05-21T05:54:41.534Z,76857.44
2023-05-21T05:57:08.796Z,76855.41
2023-05-21T05:59:35.861Z,76843.16
2023-05-21T06:02:04.684Z,76843.16
2023-05-21T06:04:31.352Z,76845.19
2023-05-21T06:06:57.862Z,76841.13
2023-05-21T06:09:24.536Z,76835.00
2023-05-21T06:11:51.331Z,76824.81
2023-05-21T06:14:17.806Z,76826.84
2023-05-21T06:16:44.260Z,76816.66
2023-05-21T06:19:10.861Z,76812.56
2023-05-21T06:21:37.902Z,76812.56
2023-05-21T06:24:05.666Z,76810.53
2023-05-21T06:26:32.302Z,76806.47
2023-05-21T06:28:59.589Z,76802.38
2023-05-21T06:31:26.052Z,76802.38
2023-05-21T06:33:53.776Z,76812.56
2023-05-21T06:36:20.330Z,76806.47
2023-05-21T06:38:47.781Z,76808.50
2023-05-21T06:41:14.217Z,76798.31
2023-05-21T06:43:53.519Z,76800.34
2023-05-21T06:46:38.558Z,76784.03
2023-05-21T06:49:07.941Z,76773.81
2023-05-21T06:51:34.753Z,76769.75
2023-05-21T06:54:02.503Z,76767.72
2023-05-21T06:56:29.185Z,76755.47
2023-05-21T06:58:55.920Z,76751.41
2023-05-21T07:01:23.430Z,76739.16
2023-05-21T07:03:50.042Z,76733.03
2023-05-21T07:06:16.782Z,76724.88
2023-05-21T07:08:43.492Z,76706.53
2023-05-21T07:11:10.066Z,76696.34
2023-05-21T07:13:37.124Z,76684.09
2023-05-21T07:16:03.802Z,76667.78
2023-05-21T07:18:31.135Z,76667.78
2023-05-21T07:20:57.707Z,76675.94
2023-05-21T07:23:24.909Z,76661.69
2023-05-21T07:25:51.446Z,76653.53
2023-05-21T07:28:18.825Z,76659.63
2023-05-21T07:30:45.452Z,76645.38
2023-05-21T07:33:16.281Z,76635.16
2023-05-21T07:35:42.977Z,76614.78
2023-05-21T07:38:09.453Z,76596.44
2023-05-21T07:40:35.917Z,76574.00
2023-05-21T07:43:03.346Z,76561.75
2023-05-21T07:45:30.986Z,76549.53
2023-05-21T07:47:57.707Z,76537.28
2023-05-21T07:50:25.594Z,76537.28
2023-05-21T07:52:52.484Z,76529.13
2023-05-21T07:55:20.093Z,76516.91
2023-05-21T07:57:47.052Z,76510.78
2023-05-21T08:00:16.129Z,76496.50
2023-05-21T08:02:46.853Z,76480.19
2023-05-21T08:05:16.285Z,76472.03
2023-05-21T08:07:43.316Z,76457.78
2023-05-21T08:10:09.976Z,76467.97
2023-05-21T08:12:36.608Z,76457.78
2023-05-21T08:15:04.641Z,76455.72
2023-05-21T08:17:32.681Z,76445.53
2023-05-21T08:19:59.791Z,76449.63
2023-05-21T08:22:27.348Z,76449.63
2023-05-21T08:24:54.385Z,76445.53
2023-05-21T08:27:21.205Z,76441.47
2023-05-21T08:29:47.660Z,76443.50
2023-05-21T08:32:14.192Z,76451.66
2023-05-21T08:34:40.840Z,76457.78
2023-05-21T08:37:21.280Z,76453.69
2023-05-21T08:40:06.417Z,76431.28
2023-05-21T08:42:45.952Z,76419.03
2023-05-21T08:45:22.290Z,76419.03
2023-05-21T08:47:59.783Z,76414.94
2023-05-21T08:50:31.576Z,76394.56
2023-05-21T08:53:04.010Z,76388.44
2023-05-21T08:55:38.836Z,76382.34
2023-05-21T08:58:05.597Z,76359.91
2023-05-21T09:00:32.224Z,76361.94
2023-05-21T09:03:02.071Z,76363.97
2023-05-21T09:05:32.395Z,76347.66
2023-05-21T09:08:06.855Z,76341.56
2023-05-21T09:10:52.403Z,76331.34
2023-05-21T09:13:24.880Z,76321.16
2023-05-21T09:15:51.613Z,76310.97
2023-05-21T09:18:19.657Z,76300.78
2023-05-21T09:20:53.997Z,76302.81
2023-05-21T09:23:20.819Z,76288.53
2023-05-21T09:25:48.845Z,76290.59
2023-05-21T09:28:23.166Z,76280.38
2023-05-21T09:30:53.989Z,76280.38
2023-05-21T09:33:29.311Z,76268.16
2023-05-21T09:35:56.108Z,76268.16
2023-05-21T09:38:25.984Z,76260.00
2023-05-21T09:40:55.740Z,76229.41
2023-05-21T09:43:22.808Z,76217.19
2023-05-21T09:45:54.031Z,76198.81
2023-05-21T09:48:36.406Z,76184.56
2023-05-21T09:51:07.861Z,76158.06
2023-05-21T09:53:34.394Z,76162.13
2023-05-21T09:56:00.868Z,76149.91
2023-05-21T09:58:27.409Z,76145.81
2023-05-21T10:00:54.246Z,76143.78
2023-05-21T10:03:23.486Z,76125.44
2023-05-21T10:05:53.514Z,76125.44
2023-05-21T10:08:22.684Z,76135.63
2023-05-21T10:10:49.548Z,76113.19
2023-05-21T10:13:18.568Z,76096.88
2023-05-21T10:15:50.110Z,76105.03
2023-05-21T10:18:18.760Z,76090.78
2023-05-21T10:20:46.130Z,76080.56
2023-05-21T10:23:13.100Z,76070.38
2023-05-21T10:25:40.046Z,76039.81
2023-05-21T10:28:06.991Z,76029.59
2023-05-21T10:30:34.770Z,76025.53
2023-05-21T10:33:02.768Z,76017.38
2023-05-21T10:35:29.783Z,76013.28
2023-05-21T10:37:58.602Z,76007.19
2023-05-21T10:40:25.078Z,76007.19
2023-05-21T10:43:28.819Z,75990.88
2023-05-21T10:46:15.011Z,75990.88
2023-05-21T10:49:11.429Z,75986.78
2023-05-21T10:52:18.334Z,75990.88
2023-05-21T10:54:59.832Z,75976.59
2023-05-21T10:57:47.802Z,75958.25
2023-05-21T11:00:18.004Z,75956.22
2023-05-21T11:02:45.624Z,75956.22
2023-05-21T11:05:12.260Z,75933.78
2023-05-21T11:07:58.559Z,75929.72
2023-05-21T11:10:40.339Z,75911.38
2023-05-21T11:13:07.729Z,75917.47
2023-05-21T11:15:58.987Z,75915.44
2023-05-21T11:18:45.812Z,75901.16
2023-05-21T11:21:14.630Z,75899.13
2023-05-21T11:24:01.324Z,75905.25
2023-05-21T11:26:51.959Z,75911.38
2023-05-21T11:29:19.922Z,75931.75
2023-05-21T11:31:47.830Z,75915.44
2023-05-21T11:34:28.333Z,75919.50
2023-05-21T11:37:16.903Z,75929.72
2023-05-21T11:39:47.388Z,75935.81
2023-05-21T11:42:27.408Z,75939.91
2023-05-21T11:44:57.095Z,75933.78
2023-05-21T11:47:24.620Z,75929.72
2023-05-21T11:49:51.012Z,75927.66
2023-05-21T11:52:19.530Z,75925.63
2023-05-21T11:54:51.681Z,75917.47
2023-05-21T11:57:19.391Z,75923.59
2023-05-21T11:59:46.780Z,75925.63
2023-05-21T12:02:20.076Z,75931.75
2023-05-21T12:04:48.558Z,75925.63
2023-05-21T12:07:17.550Z,75927.66
2023-05-21T12:09:51.137Z,75935.81
2023-05-21T12:12:19.617Z,75923.59
2023-05-21T12:14:47.822Z,75919.50
2023-05-21T12:17:18.808Z,75925.63
2023-05-21T12:19:46.518Z,75931.75
2023-05-21T12:22:13.441Z,75923.59
2023-05-21T12:24:39.852Z,75919.50
2023-05-21T12:27:09.462Z,75935.81
2023-05-21T12:29:48.598Z,75925.63
2023-05-21T12:32:15.911Z,75913.41
2023-05-21T12:34:46.886Z,75897.09
2023-05-21T12:37:27.144Z,75893.00
2023-05-21T12:39:55.368Z,75874.66
2023-05-21T12:42:34.670Z,75870.59
2023-05-21T12:45:08.300Z,75860.41
2023-05-21T12:47:34.937Z,75850.19
2023-05-21T12:50:03.000Z,75852.25
2023-05-21T12:52:33.013Z,75835.94
2023-05-21T12:55:00.423Z,75823.69
2023-05-21T12:57:38.545Z,75819.63
2023-05-21T13:00:06.916Z,75813.50
2023-05-21T13:02:41.179Z,75813.50
2023-05-21T13:05:10.006Z,75821.66
2023-05-21T13:07:38.539Z,75813.50
2023-05-21T13:10:06.663Z,75799.22
2023-05-21T13:12:33.987Z,75782.94
2023-05-21T13:15:02.055Z,75776.81
2023-05-21T13:17:29.068Z,75762.53
2023-05-21T13:20:16.642Z,75760.50
2023-05-21T13:22:46.568Z,75764.56
2023-05-21T13:25:18.781Z,75756.41
2023-05-21T13:27:45.617Z,75746.22
2023-05-21T13:30:12.189Z,75746.22
2023-05-21T13:32:39.750Z,75748.28
2023-05-21T13:35:07.199Z,75742.16
2023-05-21T13:37:37.509Z,75748.28
2023-05-21T13:40:05.729Z,75736.03
2023-05-21T13:42:32.783Z,75725.84
2023-05-21T13:44:59.256Z,75713.63
2023-05-21T13:47:25.803Z,75707.50
2023-05-21T13:49:52.566Z,75685.06
2023-05-21T13:52:19.689Z,75678.97
2023-05-21T13:54:46.091Z,75689.16
2023-05-21T13:57:12.545Z,75683.03
2023-05-21T13:59:40.701Z,75685.06
2023-05-21T14:02:08.865Z,75676.91
2023-05-21T14:04:38.391Z,75689.16
2023-05-21T14:07:05.761Z,75685.06
2023-05-21T14:09:32.313Z,75685.06
2023-05-21T14:11:58.714Z,75683.03
2023-05-21T14:14:25.755Z,75689.16
2023-05-21T14:16:52.299Z,75674.88
2023-05-21T14:19:18.837Z,75668.75
2023-05-21T14:21:45.297Z,75664.69
2023-05-21T14:24:11.799Z,75668.75
2023-05-21T14:26:41.237Z,75656.53
2023-05-21T14:29:08.286Z,75658.56
2023-05-21T14:31:35.004Z,75654.50
2023-05-21T14:34:02.755Z,75648.38
2023-05-21T14:36:29.715Z,75640.22
2023-05-21T14:38:56.207Z,75636.16
2023-05-21T14:41:29.082Z,75644.31
2023-05-21T14:43:55.477Z,75630.03
2023-05-21T14:46:22.143Z,75617.81
2023-05-21T14:48:48.772Z,75613.72
2023-05-21T14:51:15.296Z,75615.75
2023-05-21T14:53:42.060Z,75603.53
2023-05-21T14:56:08.747Z,75613.72
2023-05-21T14:58:35.184Z,75607.59
2023-05-21T15:01:04.012Z,75601.50
2023-05-21T15:03:30.533Z,75607.59
2023-05-21T15:05:58.384Z,75591.28
2023-05-21T15:08:24.816Z,75587.22
2023-05-21T15:10:51.206Z,75581.09
2023-05-21T15:13:17.661Z,75570.91
2023-05-21T15:15:44.623Z,75572.94
2023-05-21T15:18:11.873Z,75562.75
2023-05-21T15:20:38.681Z,75562.75
2023-05-21T15:23:16.071Z,75558.69
2023-05-21T15:25:44.274Z,75548.50
2023-05-21T15:28:11.835Z,75548.50
2023-05-21T15:30:38.268Z,75548.50
2023-05-21T15:33:04.727Z,75538.28
2023-05-21T15:35:31.286Z,75536.25
2023-05-21T15:37:57.855Z,75536.25
2023-05-21T15:40:26.236Z,75524.03
2023-05-21T15:42:53.623Z,75526.06
2023-05-21T15:45:20.350Z,75515.88
2023-05-21T15:47:46.892Z,75517.91
2023-05-21T15:50:13.365Z,75511.78
2023-05-21T15:52:41.756Z,75499.56
2023-05-21T15:55:08.723Z,75501.59
2023-05-21T15:57:35.197Z,75493.44
2023-05-21T16:00:01.853Z,75491.41
2023-05-21T16:02:28.269Z,75495.50
2023-05-21T16:04:54.904Z,75487.34
2023-05-21T16:07:23.097Z,75497.53
2023-05-21T16:09:49.600Z,75487.34
2023-05-21T16:12:16.077Z,75485.28
2023-05-21T16:14:42.471Z,75497.53
2023-05-21T16:17:08.989Z,75491.41
2023-05-21T16:19:35.609Z,75491.41
2023-05-21T16:22:02.076Z,75497.53
2023-05-21T16:24:28.487Z,75491.41
2023-05-21T16:26:54.845Z,75487.34
2023-05-21T16:29:22.103Z,75481.22
2023-05-21T16:31:48.913Z,75468.97
2023-05-21T16:34:15.654Z,75477.13
2023-05-21T16:36:42.058Z,75487.34
2023-05-21T16:39:08.582Z,75493.44
2023-05-21T16:41:35.053Z,75487.34
2023-05-21T16:44:01.477Z,75483.25
2023-05-21T16:46:27.890Z,75487.34
2023-05-21T16:48:54.320Z,75491.41
2023-05-21T16:51:20.702Z,75497.53
2023-05-21T16:53:47.085Z,75501.59
2023-05-21T16:56:13.462Z,75501.59
2023-05-21T16:58:39.896Z,75501.59
2023-05-21T17:01:06.346Z,75501.59
2023-05-21T17:03:33.131Z,75503.63
2023-05-21T17:05:59.674Z,75495.50
2023-05-21T17:08:26.134Z,75501.59
2023-05-21T17:10:52.583Z,75501.59
2023-05-21T17:13:22.565Z,75497.53
2023-05-21T17:15:50.836Z,75493.44
2023-05-21T17:18:17.465Z,75497.53
2023-05-21T17:20:43.933Z,75491.41
2023-05-21T17:23:11.543Z,75497.53
2023-05-21T17:25:38.296Z,75499.56
2023-05-21T17:28:05.109Z,75503.63
2023-05-21T17:30:31.561Z,75503.63
2023-05-21T17:32:58.316Z,75505.69
2023-05-21T17:35:24.792Z,75509.75
2023-05-21T17:37:53.126Z,75509.75
2023-05-21T17:40:21.170Z,75503.63
2023-05-21T17:42:47.589Z,75517.91
2023-05-21T17:45:13.964Z,75526.06
2023-05-21T17:47:40.516Z,75526.06
2023-05-21T17:50:07.744Z,75517.91
2023-05-21T17:52:34.115Z,75526.06
2023-05-21T17:55:01.042Z,75536.25
2023-05-21T17:57:27.469Z,75534.22
2023-05-21T17:59:55.011Z,75540.34
2023-05-21T18:02:23.310Z,75536.25
2023-05-21T18:04:49.747Z,75540.34
2023-05-21T18:07:16.507Z,75540.34
2023-05-21T18:09:42.874Z,75542.38
2023-05-21T18:12:09.328Z,75546.44
2023-05-21T18:14:35.739Z,75550.53
2023-05-21T18:17:02.406Z,75550.53
2023-05-21T18:19:28.992Z,75548.50
2023-05-21T18:21:56.559Z,75548.50
2023-05-21T18:24:22.983Z,75540.34
2023-05-21T18:26:49.376Z,75542.38
2023-05-21T18:29:15.856Z,75546.44
2023-05-21T18:31:44.894Z,75552.56
2023-05-21T18:34:11.479Z,75554.59
2023-05-21T18:36:40.963Z,75558.69
2023-05-21T18:39:08.910Z,75562.75
2023-05-21T18:41:36.051Z,75566.84
2023-05-21T18:44:02.819Z,75572.94
2023-05-21T18:46:29.506Z,75577.03
2023-05-21T18:48:56.321Z,75579.06
2023-05-21T18:51:22.807Z,75583.16
2023-05-21T18:53:49.230Z,75589.25
2023-05-21T18:56:15.768Z,75585.19
2023-05-21T18:58:42.206Z,75595.38
2023-05-21T19:01:08.654Z,75597.41
2023-05-21T19:03:35.028Z,75601.50
2023-05-21T19:06:01.445Z,75599.44
2023-05-21T19:08:27.824Z,75599.44
2023-05-21T19:10:54.283Z,75613.72
2023-05-21T19:13:20.878Z,75613.72
2023-05-21T19:15:48.337Z,75615.75
2023-05-21T19:18:14.776Z,75630.03
2023-05-21T19:20:41.219Z,75634.09
2023-05-21T19:23:07.768Z,75642.25
2023-05-21T19:25:34.452Z,75648.38
2023-05-21T19:28:00.878Z,75646.34
2023-05-21T19:30:27.449Z,75654.50
2023-05-21T19:32:53.867Z,75660.59
2023-05-21T19:35:20.566Z,75664.69
2023-05-21T19:37:47.346Z,75672.84
2023-05-21T19:40:13.803Z,75676.91
2023-05-21T19:42:40.222Z,75678.97
2023-05-21T19:45:09.676Z,75678.97
2023-05-21T19:47:36.416Z,75683.03
2023-05-21T19:50:03.429Z,75685.06
2023-05-21T19:52:30.091Z,75685.06
2023-05-21T19:55:04.145Z,75689.16
2023-05-21T19:57:31.561Z,75695.25
2023-05-21T19:59:58.711Z,75699.34
2023-05-21T20:02:25.380Z,75701.38
2023-05-21T20:04:53.329Z,75717.69
2023-05-21T20:07:19.857Z,75721.75
2023-05-21T20:09:46.474Z,75725.84
2023-05-21T20:12:12.866Z,75734.00
2023-05-21T20:14:39.454Z,75740.13
2023-05-21T20:17:06.071Z,75729.91
2023-05-21T20:19:32.737Z,75736.03
2023-05-21T20:21:59.304Z,75729.91
2023-05-21T20:24:25.893Z,75727.88
2023-05-21T20:26:52.359Z,75738.06
2023-05-21T20:29:18.725Z,75744.19
2023-05-21T20:31:45.481Z,75748.28
2023-05-21T20:34:12.281Z,75762.53
2023-05-21T20:36:40.337Z,75768.66
2023-05-21T20:39:07.419Z,75782.94
2023-05-21T20:41:37.465Z,75787.00
2023-05-21T20:44:05.116Z,75797.19
2023-05-21T20:46:38.136Z,75803.31
2023-05-21T20:49:05.115Z,75821.66
2023-05-21T20:51:31.590Z,75825.75
2023-05-21T20:53:58.149Z,75842.03
2023-05-21T20:56:40.771Z,75852.25
2023-05-21T20:59:10.464Z,75856.31
2023-05-21T21:01:37.848Z,75858.34
2023-05-21T21:04:04.827Z,75868.56
2023-05-21T21:06:31.689Z,75874.66
2023-05-21T21:09:04.515Z,75878.75
2023-05-21T21:11:31.113Z,75895.06
2023-05-21T21:13:57.469Z,75901.16
2023-05-21T21:16:23.919Z,75907.28
2023-05-21T21:18:50.412Z,75917.47
2023-05-21T21:21:16.828Z,75935.81
2023-05-21T21:23:43.233Z,75927.66
2023-05-21T21:26:09.678Z,75943.97
2023-05-21T21:28:36.076Z,75948.06
2023-05-21T21:31:02.685Z,75960.28
2023-05-21T21:33:29.185Z,75958.25
2023-05-21T21:35:55.595Z,75958.25
2023-05-21T21:38:22.072Z,75958.25
2023-05-21T21:40:48.790Z,75960.28
2023-05-21T21:43:15.285Z,75962.34
2023-05-21T21:45:41.709Z,75968.44
2023-05-21T21:48:08.137Z,75960.28
2023-05-21T21:50:34.590Z,75964.38
2023-05-21T21:53:01.208Z,75970.47
2023-05-21T21:55:27.716Z,75974.56
2023-05-21T21:57:54.112Z,75962.34
2023-05-21T22:00:20.899Z,75960.28
2023-05-21T22:02:47.463Z,75970.47
2023-05-21T22:05:16.829Z,75974.56
2023-05-21T22:07:46.797Z,75978.63
2023-05-21T22:10:15.010Z,75978.63
2023-05-21T22:12:42.560Z,75970.47
2023-05-21T22:15:17.800Z,75986.78
2023-05-21T22:17:44.291Z,75974.56
2023-05-21T22:20:11.270Z,75982.72
2023-05-21T22:22:37.641Z,75988.84
2023-05-21T22:25:04.299Z,75992.91
2023-05-21T22:27:30.894Z,76001.06
2023-05-21T22:29:57.248Z,76001.06
2023-05-21T22:32:23.624Z,75999.03
2023-05-21T22:34:50.000Z,76011.25
2023-05-21T22:37:16.368Z,76011.25
2023-05-21T22:39:42.713Z,76019.41
2023-05-21T22:42:09.188Z,76015.34
2023-05-21T22:44:35.664Z,76005.16
2023-05-21T22:47:03.352Z,76013.28
2023-05-21T22:49:32.487Z,76019.41
2023-05-21T22:52:09.242Z,76025.53
2023-05-21T22:54:36.058Z,76015.34
2023-05-21T22:57:02.668Z,76017.38
2023-05-21T22:59:29.565Z,76029.59
2023-05-21T23:01:55.977Z,76023.50
2023-05-21T23:04:35.658Z,76021.44
2023-05-21T23:07:06.510Z,76023.50
2023-05-21T23:09:32.922Z,76013.28
2023-05-21T23:11:59.343Z,76019.41
2023-05-21T23:14:25.731Z,76013.28
2023-05-21T23:16:53.824Z,76011.25
2023-05-21T23:19:21.147Z,76017.38
2023-05-21T23:21:47.682Z,76023.50
2023-05-21T23:24:14.045Z,76035.72
2023-05-21T23:26:40.682Z,76035.72
2023-05-21T23:29:07.052Z,76043.88
2023-05-21T23:31:33.534Z,76047.97
2023-05-21T23:34:01.512Z,76064.25
2023-05-21T23:36:27.894Z,76058.16
2023-05-21T23:38:54.243Z,76060.19
2023-05-21T23:41:20.848Z,76064.25
2023-05-21T23:43:47.195Z,76078.53
2023-05-21T23:46:13.674Z,76092.81
2023-05-21T23:48:40.147Z,76100.97
2023-05-21T23:51:06.742Z,76115.25
2023-05-21T23:53:33.131Z,76123.41
2023-05-21T23:55:59.493Z,76123.41
2023-05-21T23:58:25.957Z,76129.50
